sensor_id;sensor_type;location;lat;lon;timestamp;P1;durP1;ratioP1;P2;durP2;ratioP2
78858;SDS011;68210;52.032;4.634;2023-04-16T00:01:39;14.85;;;2.95;;
78858;SDS011;68210;52.032;4.634;2023-04-16T00:03:40;13.15;;;3.40;;
78858;SDS011;68210;52.032;4.634;2023-04-16T00:05:40;17.42;;;3.80;;
78858;SDS011;68210;52.032;4.634;2023-04-16T00:07:40;11.20;;;4.07;;
78858;SDS011;68210;52.032;4.634;2023-04-16T00:09:41;11.52;;;3.30;;
78858;SDS011;68210;52.032;4.634;2023-04-16T00:11:41;14.57;;;4.90;;
78858;SDS011;68210;52.032;4.634;2023-04-16T00:13:42;11.27;;;3.50;;
78858;SDS011;68210;52.032;4.634;2023-04-16T00:15:42;9.77;;;2.47;;
78858;SDS011;68210;52.032;4.634;2023-04-16T00:17:42;14.18;;;3.03;;
78858;SDS011;68210;52.032;4.634;2023-04-16T00:19:43;8.25;;;3.33;;
78858;SDS011;68210;52.032;4.634;2023-04-16T00:21:43;11.45;;;3.28;;
78858;SDS011;68210;52.032;4.634;2023-04-16T00:23:43;9.02;;;2.90;;
78858;SDS011;68210;52.032;4.634;2023-04-16T00:25:44;12.20;;;3.35;;
78858;SDS011;68210;52.032;4.634;2023-04-16T00:27:44;11.85;;;2.80;;
78858;SDS011;68210;52.032;4.634;2023-04-16T00:29:45;9.82;;;3.03;;
78858;SDS011;68210;52.032;4.634;2023-04-16T00:31:45;12.32;;;2.72;;
78858;SDS011;68210;52.032;4.634;2023-04-16T00:33:45;8.90;;;3.25;;
78858;SDS011;68210;52.032;4.634;2023-04-16T00:35:46;11.38;;;2.75;;
78858;SDS011;68210;52.032;4.634;2023-04-16T00:37:47;12.25;;;2.67;;
78858;SDS011;68210;52.032;4.634;2023-04-16T00:39:47;14.00;;;2.83;;
78858;SDS011;68210;52.032;4.634;2023-04-16T00:41:47;8.10;;;2.80;;
78858;SDS011;68210;52.032;4.634;2023-04-16T00:43:51;14.98;;;2.80;;
78858;SDS011;68210;52.032;4.634;2023-04-16T00:45:52;8.13;;;2.83;;
78858;SDS011;68210;52.032;4.634;2023-04-16T00:47:53;7.00;;;2.30;;
78858;SDS011;68210;52.032;4.634;2023-04-16T00:49:53;7.35;;;2.88;;
78858;SDS011;68210;52.032;4.634;2023-04-16T00:51:54;7.93;;;2.30;;
78858;SDS011;68210;52.032;4.634;2023-04-16T00:53:54;6.47;;;2.35;;
78858;SDS011;68210;52.032;4.634;2023-04-16T00:55:56;7.05;;;2.65;;
78858;SDS011;68210;52.032;4.634;2023-04-16T00:57:56;9.63;;;2.58;;
78858;SDS011;68210;52.032;4.634;2023-04-16T00:59:57;9.23;;;3.28;;
78858;SDS011;68210;52.032;4.634;2023-04-16T01:01:57;13.63;;;3.20;;
78858;SDS011;68210;52.032;4.634;2023-04-16T01:03:58;5.22;;;1.95;;
78858;SDS011;68210;52.032;4.634;2023-04-16T01:05:58;8.05;;;3.17;;
78858;SDS011;68210;52.032;4.634;2023-04-16T01:08:00;10.98;;;2.63;;
78858;SDS011;68210;52.032;4.634;2023-04-16T01:10:00;9.10;;;2.50;;
78858;SDS011;68210;52.032;4.634;2023-04-16T01:12:01;7.97;;;2.40;;
78858;SDS011;68210;52.032;4.634;2023-04-16T01:14:02;10.30;;;2.33;;
78858;SDS011;68210;52.032;4.634;2023-04-16T01:16:03;7.10;;;2.40;;
78858;SDS011;68210;52.032;4.634;2023-04-16T01:18:15;9.88;;;3.08;;
78858;SDS011;68210;52.032;4.634;2023-04-16T01:20:16;7.00;;;2.28;;
78858;SDS011;68210;52.032;4.634;2023-04-16T01:22:16;10.23;;;2.33;;
78858;SDS011;68210;52.032;4.634;2023-04-16T01:24:17;10.57;;;3.05;;
78858;SDS011;68210;52.032;4.634;2023-04-16T01:26:17;11.27;;;3.10;;
78858;SDS011;68210;52.032;4.634;2023-04-16T01:28:17;14.80;;;3.40;;
78858;SDS011;68210;52.032;4.634;2023-04-16T01:30:18;11.52;;;4.03;;
78858;SDS011;68210;52.032;4.634;2023-04-16T01:32:18;11.65;;;4.25;;
78858;SDS011;68210;52.032;4.634;2023-04-16T01:34:19;10.85;;;3.60;;
78858;SDS011;68210;52.032;4.634;2023-04-16T01:36:19;11.43;;;4.03;;
78858;SDS011;68210;52.032;4.634;2023-04-16T01:38:19;12.82;;;3.60;;
78858;SDS011;68210;52.032;4.634;2023-04-16T01:40:20;14.27;;;3.95;;
78858;SDS011;68210;52.032;4.634;2023-04-16T01:42:20;11.95;;;3.80;;
78858;SDS011;68210;52.032;4.634;2023-04-16T01:44:21;12.35;;;4.05;;
78858;SDS011;68210;52.032;4.634;2023-04-16T01:46:28;12.55;;;4.18;;
78858;SDS011;68210;52.032;4.634;2023-04-16T01:50:31;9.80;;;3.57;;
78858;SDS011;68210;52.032;4.634;2023-04-16T01:52:32;10.18;;;4.03;;
78858;SDS011;68210;52.032;4.634;2023-04-16T01:54:32;8.73;;;3.28;;
78858;SDS011;68210;52.032;4.634;2023-04-16T01:56:33;12.25;;;3.47;;
78858;SDS011;68210;52.032;4.634;2023-04-16T01:58:34;10.75;;;3.72;;
78858;SDS011;68210;52.032;4.634;2023-04-16T02:00:34;15.18;;;3.65;;
78858;SDS011;68210;52.032;4.634;2023-04-16T02:02:35;18.30;;;3.60;;
78858;SDS011;68210;52.032;4.634;2023-04-16T02:04:36;21.48;;;4.93;;
78858;SDS011;68210;52.032;4.634;2023-04-16T02:06:40;11.38;;;3.78;;
78858;SDS011;68210;52.032;4.634;2023-04-16T02:08:40;10.02;;;3.63;;
78858;SDS011;68210;52.032;4.634;2023-04-16T02:10:41;8.23;;;3.38;;
78858;SDS011;68210;52.032;4.634;2023-04-16T02:12:41;13.77;;;4.80;;
78858;SDS011;68210;52.032;4.634;2023-04-16T02:14:42;11.07;;;3.10;;
78858;SDS011;68210;52.032;4.634;2023-04-16T02:16:42;8.98;;;3.28;;
78858;SDS011;68210;52.032;4.634;2023-04-16T02:18:43;14.77;;;3.60;;
78858;SDS011;68210;52.032;4.634;2023-04-16T02:20:44;15.15;;;4.72;;
78858;SDS011;68210;52.032;4.634;2023-04-16T02:22:45;12.00;;;3.40;;
78858;SDS011;68210;52.032;4.634;2023-04-16T02:24:45;11.20;;;4.18;;
78858;SDS011;68210;52.032;4.634;2023-04-16T02:26:46;10.73;;;3.22;;
78858;SDS011;68210;52.032;4.634;2023-04-16T02:28:47;14.35;;;4.18;;
78858;SDS011;68210;52.032;4.634;2023-04-16T02:30:47;17.70;;;4.85;;
78858;SDS011;68210;52.032;4.634;2023-04-16T02:32:48;11.40;;;4.18;;
78858;SDS011;68210;52.032;4.634;2023-04-16T02:34:48;15.18;;;4.03;;
78858;SDS011;68210;52.032;4.634;2023-04-16T02:36:49;17.98;;;4.05;;
78858;SDS011;68210;52.032;4.634;2023-04-16T02:38:49;13.15;;;3.60;;
78858;SDS011;68210;52.032;4.634;2023-04-16T02:40:50;8.15;;;3.45;;
78858;SDS011;68210;52.032;4.634;2023-04-16T02:42:50;11.23;;;3.10;;
78858;SDS011;68210;52.032;4.634;2023-04-16T02:44:50;12.85;;;3.90;;
78858;SDS011;68210;52.032;4.634;2023-04-16T02:46:51;11.18;;;3.60;;
78858;SDS011;68210;52.032;4.634;2023-04-16T02:48:51;13.10;;;4.05;;
78858;SDS011;68210;52.032;4.634;2023-04-16T02:50:51;17.73;;;3.78;;
78858;SDS011;68210;52.032;4.634;2023-04-16T02:52:52;16.05;;;4.13;;
78858;SDS011;68210;52.032;4.634;2023-04-16T02:54:52;13.52;;;4.68;;
78858;SDS011;68210;52.032;4.634;2023-04-16T02:56:53;16.83;;;4.55;;
78858;SDS011;68210;52.032;4.634;2023-04-16T02:58:53;12.55;;;4.57;;
78858;SDS011;68210;52.032;4.634;2023-04-16T03:00:53;19.20;;;4.95;;
78858;SDS011;68210;52.032;4.634;2023-04-16T03:02:54;19.10;;;4.82;;
78858;SDS011;68210;52.032;4.634;2023-04-16T03:04:54;13.55;;;4.13;;
78858;SDS011;68210;52.032;4.634;2023-04-16T03:06:55;15.63;;;4.65;;
78858;SDS011;68210;52.032;4.634;2023-04-16T03:08:55;17.50;;;5.15;;
78858;SDS011;68210;52.032;4.634;2023-04-16T03:10:56;18.35;;;3.92;;
78858;SDS011;68210;52.032;4.634;2023-04-16T03:12:56;18.88;;;5.07;;
78858;SDS011;68210;52.032;4.634;2023-04-16T03:14:57;17.05;;;4.60;;
78858;SDS011;68210;52.032;4.634;2023-04-16T03:16:57;13.73;;;4.25;;
78858;SDS011;68210;52.032;4.634;2023-04-16T03:18:57;15.38;;;4.97;;
78858;SDS011;68210;52.032;4.634;2023-04-16T03:20:58;18.77;;;4.20;;
78858;SDS011;68210;52.032;4.634;2023-04-16T03:22:59;22.33;;;4.82;;
78858;SDS011;68210;52.032;4.634;2023-04-16T03:25:00;16.25;;;5.05;;
78858;SDS011;68210;52.032;4.634;2023-04-16T03:27:00;18.30;;;4.78;;
78858;SDS011;68210;52.032;4.634;2023-04-16T03:29:01;14.70;;;4.50;;
78858;SDS011;68210;52.032;4.634;2023-04-16T03:31:02;20.67;;;4.72;;
78858;SDS011;68210;52.032;4.634;2023-04-16T03:33:02;10.95;;;4.53;;
78858;SDS011;68210;52.032;4.634;2023-04-16T03:35:03;14.52;;;4.05;;
78858;SDS011;68210;52.032;4.634;2023-04-16T03:37:07;10.65;;;3.78;;
78858;SDS011;68210;52.032;4.634;2023-04-16T03:39:10;22.83;;;4.50;;
78858;SDS011;68210;52.032;4.634;2023-04-16T03:41:11;13.98;;;3.88;;
78858;SDS011;68210;52.032;4.634;2023-04-16T03:43:11;17.02;;;4.07;;
78858;SDS011;68210;52.032;4.634;2023-04-16T03:45:11;15.65;;;3.58;;
78858;SDS011;68210;52.032;4.634;2023-04-16T03:47:12;19.25;;;4.55;;
78858;SDS011;68210;52.032;4.634;2023-04-16T03:49:12;14.40;;;4.05;;
78858;SDS011;68210;52.032;4.634;2023-04-16T03:51:13;13.18;;;3.58;;
78858;SDS011;68210;52.032;4.634;2023-04-16T03:53:13;9.55;;;3.35;;
78858;SDS011;68210;52.032;4.634;2023-04-16T03:55:13;13.75;;;3.45;;
78858;SDS011;68210;52.032;4.634;2023-04-16T03:57:14;12.85;;;4.68;;
78858;SDS011;68210;52.032;4.634;2023-04-16T03:59:14;13.63;;;3.72;;
78858;SDS011;68210;52.032;4.634;2023-04-16T04:01:15;18.90;;;4.25;;
78858;SDS011;68210;52.032;4.634;2023-04-16T04:03:15;12.77;;;3.25;;
78858;SDS011;68210;52.032;4.634;2023-04-16T04:05:16;10.35;;;3.83;;
78858;SDS011;68210;52.032;4.634;2023-04-16T04:07:17;11.27;;;3.03;;
78858;SDS011;68210;52.032;4.634;2023-04-16T04:09:17;12.35;;;3.47;;
78858;SDS011;68210;52.032;4.634;2023-04-16T04:11:17;14.50;;;3.67;;
78858;SDS011;68210;52.032;4.634;2023-04-16T04:13:18;11.80;;;3.40;;
78858;SDS011;68210;52.032;4.634;2023-04-16T04:15:18;14.43;;;3.83;;
78858;SDS011;68210;52.032;4.634;2023-04-16T04:17:19;7.85;;;3.03;;
78858;SDS011;68210;52.032;4.634;2023-04-16T04:19:19;9.32;;;3.40;;
78858;SDS011;68210;52.032;4.634;2023-04-16T04:21:19;16.98;;;3.30;;
78858;SDS011;68210;52.032;4.634;2023-04-16T04:23:20;10.00;;;3.50;;
78858;SDS011;68210;52.032;4.634;2023-04-16T04:25:20;14.20;;;3.33;;
78858;SDS011;68210;52.032;4.634;2023-04-16T04:27:21;17.55;;;3.88;;
78858;SDS011;68210;52.032;4.634;2023-04-16T04:29:21;15.32;;;4.18;;
78858;SDS011;68210;52.032;4.634;2023-04-16T04:31:22;6.35;;;2.35;;
78858;SDS011;68210;52.032;4.634;2023-04-16T04:33:22;7.70;;;2.50;;
78858;SDS011;68210;52.032;4.634;2023-04-16T04:35:22;7.20;;;2.55;;
78858;SDS011;68210;52.032;4.634;2023-04-16T04:37:23;8.43;;;2.80;;
78858;SDS011;68210;52.032;4.634;2023-04-16T04:39:23;11.02;;;2.42;;
78858;SDS011;68210;52.032;4.634;2023-04-16T04:41:24;7.90;;;2.63;;
78858;SDS011;68210;52.032;4.634;2023-04-16T04:43:25;19.50;;;4.95;;
78858;SDS011;68210;52.032;4.634;2023-04-16T04:45:26;11.25;;;2.75;;
78858;SDS011;68210;52.032;4.634;2023-04-16T04:47:26;11.00;;;5.10;;
78858;SDS011;68210;52.032;4.634;2023-04-16T04:49:27;6.80;;;2.75;;
78858;SDS011;68210;52.032;4.634;2023-04-16T04:51:27;8.90;;;3.13;;
78858;SDS011;68210;52.032;4.634;2023-04-16T04:53:27;9.57;;;2.70;;
78858;SDS011;68210;52.032;4.634;2023-04-16T04:55:28;9.73;;;3.55;;
78858;SDS011;68210;52.032;4.634;2023-04-16T04:57:28;6.78;;;3.03;;
78858;SDS011;68210;52.032;4.634;2023-04-16T04:59:28;9.27;;;3.35;;
78858;SDS011;68210;52.032;4.634;2023-04-16T05:01:29;8.13;;;3.50;;
78858;SDS011;68210;52.032;4.634;2023-04-16T05:03:29;13.60;;;3.25;;
78858;SDS011;68210;52.032;4.634;2023-04-16T05:05:30;7.47;;;2.95;;
78858;SDS011;68210;52.032;4.634;2023-04-16T05:07:30;6.97;;;3.40;;
78858;SDS011;68210;52.032;4.634;2023-04-16T05:09:31;11.52;;;3.33;;
78858;SDS011;68210;52.032;4.634;2023-04-16T05:11:32;7.00;;;2.90;;
78858;SDS011;68210;52.032;4.634;2023-04-16T05:13:32;7.60;;;3.25;;
78858;SDS011;68210;52.032;4.634;2023-04-16T05:15:33;8.35;;;3.53;;
78858;SDS011;68210;52.032;4.634;2023-04-16T05:17:33;8.60;;;3.50;;
78858;SDS011;68210;52.032;4.634;2023-04-16T05:19:34;7.20;;;3.00;;
78858;SDS011;68210;52.032;4.634;2023-04-16T05:21:34;6.20;;;3.47;;
78858;SDS011;68210;52.032;4.634;2023-04-16T05:23:34;7.20;;;3.85;;
78858;SDS011;68210;52.032;4.634;2023-04-16T05:25:35;8.40;;;3.30;;
78858;SDS011;68210;52.032;4.634;2023-04-16T05:27:35;10.75;;;3.47;;
78858;SDS011;68210;52.032;4.634;2023-04-16T05:29:36;10.05;;;3.63;;
78858;SDS011;68210;52.032;4.634;2023-04-16T05:31:36;8.50;;;3.53;;
78858;SDS011;68210;52.032;4.634;2023-04-16T05:33:37;5.65;;;2.72;;
78858;SDS011;68210;52.032;4.634;2023-04-16T05:35:37;8.85;;;4.03;;
78858;SDS011;68210;52.032;4.634;2023-04-16T05:37:38;7.47;;;3.83;;
78858;SDS011;68210;52.032;4.634;2023-04-16T05:39:38;10.07;;;3.10;;
78858;SDS011;68210;52.032;4.634;2023-04-16T05:41:38;10.90;;;3.63;;
78858;SDS011;68210;52.032;4.634;2023-04-16T05:43:39;8.23;;;3.75;;
78858;SDS011;68210;52.032;4.634;2023-04-16T05:45:39;6.82;;;4.63;;
78858;SDS011;68210;52.032;4.634;2023-04-16T05:47:40;8.75;;;3.92;;
78858;SDS011;68210;52.032;4.634;2023-04-16T05:49:40;10.65;;;4.80;;
78858;SDS011;68210;52.032;4.634;2023-04-16T05:51:41;13.77;;;4.65;;
78858;SDS011;68210;52.032;4.634;2023-04-16T05:53:41;12.48;;;4.68;;
78858;SDS011;68210;52.032;4.634;2023-04-16T05:55:41;15.55;;;5.20;;
78858;SDS011;68210;52.032;4.634;2023-04-16T05:57:42;11.60;;;5.25;;
78858;SDS011;68210;52.032;4.634;2023-04-16T05:59:42;10.30;;;4.82;;
78858;SDS011;68210;52.032;4.634;2023-04-16T06:01:42;13.18;;;4.88;;
78858;SDS011;68210;52.032;4.634;2023-04-16T06:03:43;15.05;;;5.25;;
78858;SDS011;68210;52.032;4.634;2023-04-16T06:05:45;11.60;;;5.63;;
78858;SDS011;68210;52.032;4.634;2023-04-16T06:07:45;16.05;;;5.95;;
78858;SDS011;68210;52.032;4.634;2023-04-16T06:09:45;12.52;;;5.60;;
78858;SDS011;68210;52.032;4.634;2023-04-16T06:11:46;13.60;;;5.40;;
78858;SDS011;68210;52.032;4.634;2023-04-16T06:13:47;9.07;;;4.90;;
78858;SDS011;68210;52.032;4.634;2023-04-16T06:15:47;13.65;;;4.75;;
78858;SDS011;68210;52.032;4.634;2023-04-16T06:17:48;12.80;;;5.00;;
78858;SDS011;68210;52.032;4.634;2023-04-16T06:19:49;11.98;;;5.25;;
78858;SDS011;68210;52.032;4.634;2023-04-16T06:21:49;12.95;;;4.88;;
78858;SDS011;68210;52.032;4.634;2023-04-16T06:23:52;14.40;;;4.95;;
78858;SDS011;68210;52.032;4.634;2023-04-16T06:25:54;14.30;;;4.72;;
78858;SDS011;68210;52.032;4.634;2023-04-16T06:27:55;13.82;;;4.50;;
78858;SDS011;68210;52.032;4.634;2023-04-16T06:29:55;9.18;;;4.30;;
78858;SDS011;68210;52.032;4.634;2023-04-16T06:31:56;14.88;;;5.13;;
78858;SDS011;68210;52.032;4.634;2023-04-16T06:33:56;18.20;;;4.47;;
78858;SDS011;68210;52.032;4.634;2023-04-16T06:35:56;8.90;;;4.78;;
78858;SDS011;68210;52.032;4.634;2023-04-16T06:37:57;15.85;;;5.30;;
78858;SDS011;68210;52.032;4.634;2023-04-16T06:39:57;13.02;;;4.90;;
78858;SDS011;68210;52.032;4.634;2023-04-16T06:41:58;16.15;;;5.80;;
78858;SDS011;68210;52.032;4.634;2023-04-16T06:43:58;17.73;;;5.93;;
78858;SDS011;68210;52.032;4.634;2023-04-16T06:45:58;13.90;;;5.60;;
78858;SDS011;68210;52.032;4.634;2023-04-16T06:47:59;16.30;;;6.15;;
78858;SDS011;68210;52.032;4.634;2023-04-16T06:52:02;15.33;;;6.60;;
78858;SDS011;68210;52.032;4.634;2023-04-16T06:54:02;16.40;;;6.72;;
78858;SDS011;68210;52.032;4.634;2023-04-16T06:56:03;16.30;;;6.05;;
78858;SDS011;68210;52.032;4.634;2023-04-16T06:58:04;12.57;;;5.18;;
78858;SDS011;68210;52.032;4.634;2023-04-16T07:00:04;15.80;;;5.22;;
78858;SDS011;68210;52.032;4.634;2023-04-16T07:02:06;17.48;;;6.00;;
78858;SDS011;68210;52.032;4.634;2023-04-16T07:04:10;11.10;;;5.43;;
78858;SDS011;68210;52.032;4.634;2023-04-16T07:06:11;17.20;;;6.25;;
78858;SDS011;68210;52.032;4.634;2023-04-16T07:08:11;15.02;;;5.35;;
78858;SDS011;68210;52.032;4.634;2023-04-16T07:10:11;14.63;;;6.18;;
78858;SDS011;68210;52.032;4.634;2023-04-16T07:12:12;10.68;;;5.82;;
78858;SDS011;68210;52.032;4.634;2023-04-16T07:14:12;12.52;;;5.72;;
78858;SDS011;68210;52.032;4.634;2023-04-16T07:16:13;12.90;;;5.07;;
78858;SDS011;68210;52.032;4.634;2023-04-16T07:18:14;13.85;;;4.72;;
78858;SDS011;68210;52.032;4.634;2023-04-16T07:20:15;13.32;;;5.80;;
78858;SDS011;68210;52.032;4.634;2023-04-16T07:22:16;11.60;;;3.92;;
78858;SDS011;68210;52.032;4.634;2023-04-16T07:24:16;9.88;;;4.45;;
78858;SDS011;68210;52.032;4.634;2023-04-16T07:26:16;10.75;;;4.50;;
78858;SDS011;68210;52.032;4.634;2023-04-16T07:28:17;9.88;;;5.03;;
78858;SDS011;68210;52.032;4.634;2023-04-16T07:30:17;12.70;;;5.03;;
78858;SDS011;68210;52.032;4.634;2023-04-16T07:32:18;8.35;;;4.55;;
78858;SDS011;68210;52.032;4.634;2023-04-16T07:34:19;8.80;;;5.10;;
78858;SDS011;68210;52.032;4.634;2023-04-16T07:36:19;9.77;;;4.97;;
78858;SDS011;68210;52.032;4.634;2023-04-16T07:38:20;10.63;;;4.72;;
78858;SDS011;68210;52.032;4.634;2023-04-16T07:40:20;12.15;;;5.43;;
78858;SDS011;68210;52.032;4.634;2023-04-16T07:42:21;10.90;;;5.10;;
78858;SDS011;68210;52.032;4.634;2023-04-16T07:44:21;11.63;;;5.05;;
78858;SDS011;68210;52.032;4.634;2023-04-16T07:46:21;14.32;;;5.55;;
78858;SDS011;68210;52.032;4.634;2023-04-16T07:48:22;11.88;;;5.78;;
78858;SDS011;68210;52.032;4.634;2023-04-16T07:50:22;11.07;;;5.93;;
78858;SDS011;68210;52.032;4.634;2023-04-16T07:52:23;9.40;;;5.93;;
78858;SDS011;68210;52.032;4.634;2023-04-16T07:54:24;10.93;;;5.72;;
78858;SDS011;68210;52.032;4.634;2023-04-16T07:56:24;14.07;;;7.25;;
78858;SDS011;68210;52.032;4.634;2023-04-16T07:58:25;13.68;;;6.95;;
78858;SDS011;68210;52.032;4.634;2023-04-16T08:00:25;16.75;;;7.68;;
78858;SDS011;68210;52.032;4.634;2023-04-16T08:02:25;13.10;;;6.93;;
78858;SDS011;68210;52.032;4.634;2023-04-16T08:04:26;10.85;;;6.35;;
78858;SDS011;68210;52.032;4.634;2023-04-16T08:06:26;11.35;;;6.13;;
78858;SDS011;68210;52.032;4.634;2023-04-16T08:08:27;16.05;;;7.85;;
78858;SDS011;68210;52.032;4.634;2023-04-16T08:10:28;12.18;;;7.28;;
78858;SDS011;68210;52.032;4.634;2023-04-16T08:12:29;17.23;;;8.75;;
78858;SDS011;68210;52.032;4.634;2023-04-16T08:14:29;17.40;;;9.00;;
78858;SDS011;68210;52.032;4.634;2023-04-16T08:16:30;18.42;;;8.40;;
78858;SDS011;68210;52.032;4.634;2023-04-16T08:18:30;14.75;;;8.27;;
78858;SDS011;68210;52.032;4.634;2023-04-16T08:20:30;22.20;;;8.70;;
78858;SDS011;68210;52.032;4.634;2023-04-16T08:22:32;16.23;;;7.97;;
78858;SDS011;68210;52.032;4.634;2023-04-16T08:24:32;16.70;;;8.85;;
78858;SDS011;68210;52.032;4.634;2023-04-16T08:26:33;19.92;;;8.00;;
78858;SDS011;68210;52.032;4.634;2023-04-16T08:28:40;18.60;;;8.38;;
78858;SDS011;68210;52.032;4.634;2023-04-16T08:30:43;13.32;;;7.63;;
78858;SDS011;68210;52.032;4.634;2023-04-16T08:32:44;17.35;;;7.53;;
78858;SDS011;68210;52.032;4.634;2023-04-16T08:34:45;21.65;;;8.05;;
78858;SDS011;68210;52.032;4.634;2023-04-16T08:36:46;19.35;;;8.15;;
78858;SDS011;68210;52.032;4.634;2023-04-16T08:38:46;14.75;;;7.65;;
78858;SDS011;68210;52.032;4.634;2023-04-16T08:40:46;15.48;;;8.38;;
78858;SDS011;68210;52.032;4.634;2023-04-16T08:42:48;17.83;;;8.60;;
78858;SDS011;68210;52.032;4.634;2023-04-16T08:44:54;18.55;;;7.78;;
78858;SDS011;68210;52.032;4.634;2023-04-16T08:47:05;16.05;;;8.40;;
78858;SDS011;68210;52.032;4.634;2023-04-16T08:51:12;18.25;;;9.85;;
78858;SDS011;68210;52.032;4.634;2023-04-16T08:53:16;19.73;;;9.57;;
78858;SDS011;68210;52.032;4.634;2023-04-16T08:55:20;23.08;;;10.30;;
78858;SDS011;68210;52.032;4.634;2023-04-16T08:57:28;20.67;;;9.80;;
78858;SDS011;68210;52.032;4.634;2023-04-16T08:59:32;19.80;;;9.90;;
78858;SDS011;68210;52.032;4.634;2023-04-16T09:01:33;18.70;;;9.98;;
78858;SDS011;68210;52.032;4.634;2023-04-16T09:03:34;17.58;;;10.88;;
78858;SDS011;68210;52.032;4.634;2023-04-16T09:05:35;17.63;;;10.32;;
78858;SDS011;68210;52.032;4.634;2023-04-16T09:07:36;18.88;;;9.35;;
78858;SDS011;68210;52.032;4.634;2023-04-16T09:09:37;19.85;;;10.55;;
78858;SDS011;68210;52.032;4.634;2023-04-16T09:11:39;22.25;;;10.75;;
78858;SDS011;68210;52.032;4.634;2023-04-16T09:13:40;22.23;;;10.07;;
78858;SDS011;68210;52.032;4.634;2023-04-16T09:15:40;18.88;;;9.70;;
78858;SDS011;68210;52.032;4.634;2023-04-16T09:17:42;22.23;;;10.25;;
78858;SDS011;68210;52.032;4.634;2023-04-16T09:19:42;19.75;;;11.02;;
78858;SDS011;68210;52.032;4.634;2023-04-16T09:21:44;16.80;;;10.43;;
78858;SDS011;68210;52.032;4.634;2023-04-16T09:23:46;15.95;;;8.52;;
78858;SDS011;68210;52.032;4.634;2023-04-16T09:25:46;17.70;;;10.40;;
78858;SDS011;68210;52.032;4.634;2023-04-16T09:27:49;15.82;;;10.27;;
78858;SDS011;68210;52.032;4.634;2023-04-16T09:29:50;20.55;;;10.32;;
78858;SDS011;68210;52.032;4.634;2023-04-16T09:32:00;19.70;;;8.75;;
78858;SDS011;68210;52.032;4.634;2023-04-16T09:34:06;14.65;;;8.55;;
78858;SDS011;68210;52.032;4.634;2023-04-16T09:36:08;19.77;;;10.85;;
78858;SDS011;68210;52.032;4.634;2023-04-16T09:38:09;17.25;;;9.25;;
78858;SDS011;68210;52.032;4.634;2023-04-16T09:40:09;15.35;;;8.52;;
78858;SDS011;68210;52.032;4.634;2023-04-16T09:42:10;18.73;;;10.60;;
78858;SDS011;68210;52.032;4.634;2023-04-16T09:44:11;17.30;;;10.15;;
78858;SDS011;68210;52.032;4.634;2023-04-16T09:46:11;16.27;;;9.43;;
78858;SDS011;68210;52.032;4.634;2023-04-16T09:48:11;18.25;;;9.55;;
78858;SDS011;68210;52.032;4.634;2023-04-16T09:50:15;18.77;;;9.27;;
78858;SDS011;68210;52.032;4.634;2023-04-16T09:52:18;18.05;;;9.02;;
78858;SDS011;68210;52.032;4.634;2023-04-16T09:54:21;21.05;;;10.32;;
78858;SDS011;68210;52.032;4.634;2023-04-16T09:56:24;19.95;;;9.60;;
78858;SDS011;68210;52.032;4.634;2023-04-16T09:58:25;20.92;;;10.18;;
78858;SDS011;68210;52.032;4.634;2023-04-16T10:00:25;16.92;;;9.57;;
78858;SDS011;68210;52.032;4.634;2023-04-16T10:02:28;19.75;;;8.70;;
78858;SDS011;68210;52.032;4.634;2023-04-16T10:04:29;19.27;;;9.90;;
78858;SDS011;68210;52.032;4.634;2023-04-16T10:06:47;13.20;;;8.38;;
78858;SDS011;68210;52.032;4.634;2023-04-16T10:09:04;17.75;;;8.13;;
78858;SDS011;68210;52.032;4.634;2023-04-16T10:11:06;20.10;;;9.95;;
78858;SDS011;68210;52.032;4.634;2023-04-16T10:13:06;21.70;;;12.10;;
78858;SDS011;68210;52.032;4.634;2023-04-16T10:15:07;21.70;;;10.52;;
78858;SDS011;68210;52.032;4.634;2023-04-16T10:17:08;21.13;;;13.15;;
78858;SDS011;68210;52.032;4.634;2023-04-16T10:19:08;28.38;;;13.55;;
78858;SDS011;68210;52.032;4.634;2023-04-16T10:21:09;21.50;;;10.93;;
78858;SDS011;68210;52.032;4.634;2023-04-16T10:23:14;25.35;;;11.75;;
78858;SDS011;68210;52.032;4.634;2023-04-16T10:25:15;22.00;;;12.00;;
78858;SDS011;68210;52.032;4.634;2023-04-16T10:27:15;32.78;;;13.23;;
78858;SDS011;68210;52.032;4.634;2023-04-16T10:29:17;25.80;;;12.10;;
78858;SDS011;68210;52.032;4.634;2023-04-16T10:31:19;19.88;;;10.77;;
78858;SDS011;68210;52.032;4.634;2023-04-16T10:33:22;22.70;;;11.35;;
78858;SDS011;68210;52.032;4.634;2023-04-16T10:35:26;29.08;;;11.35;;
78858;SDS011;68210;52.032;4.634;2023-04-16T10:37:29;21.55;;;11.05;;
78858;SDS011;68210;52.032;4.634;2023-04-16T10:39:30;24.92;;;11.27;;
78858;SDS011;68210;52.032;4.634;2023-04-16T10:41:36;22.55;;;10.82;;
78858;SDS011;68210;52.032;4.634;2023-04-16T10:43:38;17.65;;;10.13;;
78858;SDS011;68210;52.032;4.634;2023-04-16T10:45:40;20.80;;;11.02;;
78858;SDS011;68210;52.032;4.634;2023-04-16T10:47:40;24.17;;;11.73;;
78858;SDS011;68210;52.032;4.634;2023-04-16T10:49:42;19.75;;;10.25;;
78858;SDS011;68210;52.032;4.634;2023-04-16T10:56:10;17.33;;;9.05;;
78858;SDS011;68210;52.032;4.634;2023-04-16T10:58:28;20.23;;;9.93;;
78858;SDS011;68210;52.032;4.634;2023-04-16T11:00:29;18.27;;;9.02;;
78858;SDS011;68210;52.032;4.634;2023-04-16T11:02:30;16.95;;;9.48;;
78858;SDS011;68210;52.032;4.634;2023-04-16T11:04:36;20.20;;;10.48;;
78858;SDS011;68210;52.032;4.634;2023-04-16T11:06:38;22.73;;;9.00;;
78858;SDS011;68210;52.032;4.634;2023-04-16T11:08:39;17.05;;;7.60;;
78858;SDS011;68210;52.032;4.634;2023-04-16T11:10:44;16.05;;;7.75;;
78858;SDS011;68210;52.032;4.634;2023-04-16T11:12:45;17.98;;;8.00;;
78858;SDS011;68210;52.032;4.634;2023-04-16T11:14:50;15.32;;;7.38;;
78858;SDS011;68210;52.032;4.634;2023-04-16T11:16:51;15.80;;;7.20;;
78858;SDS011;68210;52.032;4.634;2023-04-16T11:18:52;16.25;;;8.23;;
78858;SDS011;68210;52.032;4.634;2023-04-16T11:20:52;17.98;;;7.35;;
78858;SDS011;68210;52.032;4.634;2023-04-16T11:22:54;17.02;;;7.95;;
78858;SDS011;68210;52.032;4.634;2023-04-16T11:24:55;20.50;;;9.38;;
78858;SDS011;68210;52.032;4.634;2023-04-16T11:26:56;17.38;;;8.63;;
78858;SDS011;68210;52.032;4.634;2023-04-16T11:28:56;16.58;;;9.60;;
78858;SDS011;68210;52.032;4.634;2023-04-16T11:30:59;21.13;;;10.25;;
78858;SDS011;68210;52.032;4.634;2023-04-16T11:33:10;20.00;;;10.70;;
78858;SDS011;68210;52.032;4.634;2023-04-16T11:35:14;18.33;;;9.60;;
78858;SDS011;68210;52.032;4.634;2023-04-16T11:37:19;15.38;;;9.40;;
78858;SDS011;68210;52.032;4.634;2023-04-16T11:39:30;16.83;;;8.45;;
78858;SDS011;68210;52.032;4.634;2023-04-16T11:41:30;18.75;;;7.63;;
78858;SDS011;68210;52.032;4.634;2023-04-16T11:43:31;18.58;;;7.97;;
78858;SDS011;68210;52.032;4.634;2023-04-16T11:45:31;18.35;;;7.75;;
78858;SDS011;68210;52.032;4.634;2023-04-16T11:47:41;17.88;;;8.73;;
78858;SDS011;68210;52.032;4.634;2023-04-16T11:49:45;21.25;;;10.38;;
78858;SDS011;68210;52.032;4.634;2023-04-16T11:51:45;20.40;;;8.70;;
78858;SDS011;68210;52.032;4.634;2023-04-16T11:55:47;24.58;;;9.48;;
78858;SDS011;68210;52.032;4.634;2023-04-16T11:57:49;19.85;;;8.73;;
78858;SDS011;68210;52.032;4.634;2023-04-16T11:59:49;18.65;;;7.82;;
78858;SDS011;68210;52.032;4.634;2023-04-16T12:01:51;22.88;;;8.70;;
78858;SDS011;68210;52.032;4.634;2023-04-16T12:03:59;15.05;;;7.93;;
78858;SDS011;68210;52.032;4.634;2023-04-16T12:06:08;20.08;;;10.35;;
78858;SDS011;68210;52.032;4.634;2023-04-16T12:08:10;22.95;;;10.77;;
78858;SDS011;68210;52.032;4.634;2023-04-16T12:10:11;19.60;;;10.68;;
78858;SDS011;68210;52.032;4.634;2023-04-16T12:12:24;19.75;;;9.75;;
78858;SDS011;68210;52.032;4.634;2023-04-16T12:14:26;21.27;;;10.20;;